createdAt,value
2018-03-23T00:00:47.802Z,1026.24
2018-03-23T00:01:48.379Z,1026.28
2018-03-23T00:02:48.961Z,1026.30
2018-03-23T00:03:49.629Z,1026.25
2018-03-23T00:04:50.208Z,1026.23
2018-03-23T00:05:50.789Z,1026.27
2018-03-23T00:06:51.363Z,1026.24
2018-03-23T00:07:51.941Z,1026.26
2018-03-23T00:08:52.518Z,1026.30
2018-03-23T00:09:53.095Z,1026.21
2018-03-23T00:10:53.673Z,1026.22
2018-03-23T00:11:54.249Z,1026.24
2018-03-23T00:12:54.827Z,1026.30
2018-03-23T00:13:55.407Z,1026.28
2018-03-23T00:14:56.032Z,1026.29
2018-03-23T00:15:56.658Z,1026.27
2018-03-23T00:16:57.236Z,1026.22
2018-03-23T00:17:57.815Z,1026.22
2018-03-23T00:18:58.443Z,1026.24
2018-03-23T00:19:59.069Z,1026.23
2018-03-23T00:20:59.648Z,1026.20
2018-03-23T00:22:00.225Z,1026.21
2018-03-23T00:23:00.805Z,1026.15
2018-03-23T00:24:01.382Z,1026.07
2018-03-23T00:25:01.960Z,1026.10
2018-03-23T00:26:02.536Z,1026.08
2018-03-23T00:27:03.130Z,1026.10
2018-03-23T00:28:03.727Z,1025.97
2018-03-23T00:29:04.307Z,1026.03
2018-03-23T00:30:04.885Z,1026.04
2018-03-23T00:31:05.513Z,1026.03
2018-03-23T00:32:06.193Z,1026.01
2018-03-23T00:33:06.772Z,1026.02
2018-03-23T00:34:07.349Z,1026.01
2018-03-23T00:35:07.926Z,1026.01
2018-03-23T00:36:08.554Z,1025.96
2018-03-23T00:37:09.132Z,1025.96
2018-03-23T00:38:09.710Z,1025.97
2018-03-23T00:39:10.291Z,1025.89
2018-03-23T00:40:10.867Z,1025.96
2018-03-23T00:41:11.447Z,1025.94
2018-03-23T00:42:12.026Z,1025.89
2018-03-23T00:43:12.640Z,1025.92
2018-03-23T00:44:13.219Z,1025.82
2018-03-23T00:45:13.792Z,1025.77
2018-03-23T00:46:14.369Z,1025.88
2018-03-23T00:47:14.994Z,1025.87
2018-03-23T00:48:15.574Z,1025.92
2018-03-23T00:49:16.150Z,1025.94
2018-03-23T00:50:16.776Z,1025.88
2018-03-23T00:51:17.402Z,1025.84
2018-03-23T00:52:17.989Z,1025.86
2018-03-23T00:53:18.558Z,1025.82
2018-03-23T00:54:19.135Z,1025.83
2018-03-23T00:55:19.710Z,1025.72
2018-03-23T00:56:20.340Z,1025.80
2018-03-23T00:57:20.918Z,1025.75
2018-03-23T00:58:21.497Z,1025.75
2018-03-23T00:59:22.076Z,1025.74
2018-03-23T01:00:22.652Z,1025.71
2018-03-23T01:01:23.229Z,1025.72
2018-03-23T01:02:23.807Z,1025.64
2018-03-23T01:03:24.493Z,1025.72
2018-03-23T01:04:25.062Z,1025.70
2018-03-23T01:05:25.638Z,1025.68
2018-03-23T01:06:26.283Z,1025.64
2018-03-23T01:07:26.840Z,1025.57
2018-03-23T01:08:27.420Z,1025.63
2018-03-23T01:09:28.046Z,1025.51
2018-03-23T01:10:28.623Z,1025.59
2018-03-23T01:11:29.202Z,1025.57
2018-03-23T01:12:29.781Z,1025.52
2018-03-23T01:13:30.404Z,1025.50
2018-03-23T01:14:30.981Z,1025.52
2018-03-23T01:15:31.554Z,1025.57
2018-03-23T01:16:32.130Z,1025.55
2018-03-23T01:17:32.711Z,1025.54
2018-03-23T01:18:33.283Z,1025.54
2018-03-23T01:19:33.857Z,1025.52
2018-03-23T01:20:34.433Z,1025.52
2018-03-23T01:21:35.008Z,1025.46
2018-03-23T01:22:35.583Z,1025.39
2018-03-23T01:23:36.210Z,1025.40
2018-03-23T01:24:36.792Z,1025.39
2018-03-23T01:25:37.416Z,1025.39
2018-03-23T01:26:38.086Z,1025.35
2018-03-23T01:27:38.667Z,1025.29
2018-03-23T01:28:39.240Z,1025.38
2018-03-23T01:29:39.818Z,1025.28
2018-03-23T01:30:40.397Z,1025.31
2018-03-23T01:31:40.969Z,1025.33
2018-03-23T01:32:41.546Z,1025.34
2018-03-23T01:33:42.121Z,1025.36
2018-03-23T01:34:42.698Z,1025.32
2018-03-23T01:35:43.274Z,1025.35
2018-03-23T01:36:43.851Z,1025.31
2018-03-23T01:37:44.427Z,1025.30
2018-03-23T01:38:45.004Z,1025.24
2018-03-23T01:39:45.584Z,1025.23
2018-03-23T01:40:46.201Z,1025.17
2018-03-23T01:41:46.929Z,1025.21
2018-03-23T01:42:47.557Z,1025.14
2018-03-23T01:43:48.135Z,1025.12
2018-03-23T01:44:48.764Z,1025.18
2018-03-23T01:45:49.341Z,1025.03
2018-03-23T01:46:49.919Z,1025.01
2018-03-23T01:47:50.542Z,1025.06
2018-03-23T01:48:51.119Z,1025.05
2018-03-23T01:49:51.698Z,1025.02
2018-03-23T01:50:52.276Z,1025.02
2018-03-23T01:51:52.852Z,1025.01
2018-03-23T01:52:53.429Z,1024.96
2018-03-23T01:53:54.004Z,1024.98
2018-03-23T01:54:54.581Z,1025.00
2018-03-23T01:55:55.156Z,1024.95
2018-03-23T01:56:55.733Z,1024.88
2018-03-23T01:57:56.313Z,1024.86
2018-03-23T01:58:56.932Z,1024.79
2018-03-23T01:59:57.561Z,1024.87
2018-03-23T02:00:58.135Z,1024.85
2018-03-23T02:01:58.761Z,1024.87
2018-03-23T02:02:59.340Z,1024.89
2018-03-23T02:03:59.919Z,1024.76
2018-03-23T02:05:00.495Z,1024.76
2018-03-23T02:06:01.094Z,1024.84
2018-03-23T02:07:01.648Z,1024.76
2018-03-23T02:08:02.224Z,1024.76
2018-03-23T02:09:02.801Z,1024.71
2018-03-23T02:10:03.376Z,1024.70
2018-03-23T02:11:03.957Z,1024.65
2018-03-23T02:12:04.532Z,1024.70
2018-03-23T02:13:05.110Z,1024.68
2018-03-23T02:14:05.740Z,1024.68
2018-03-23T02:15:06.365Z,1024.62
2018-03-23T02:16:06.944Z,1024.64
2018-03-23T02:17:07.522Z,1024.61
2018-03-23T02:18:08.098Z,1024.64
2018-03-23T02:19:08.726Z,1024.54
2018-03-23T02:20:09.303Z,1024.51
2018-03-23T02:21:10.033Z,1024.52
2018-03-23T02:22:10.649Z,1024.42
2018-03-23T02:23:11.233Z,1024.51
2018-03-23T02:24:11.850Z,1024.51
2018-03-23T02:25:12.425Z,1024.41
2018-03-23T02:26:13.001Z,1024.50
2018-03-23T02:27:13.579Z,1024.40
2018-03-23T02:28:14.155Z,1024.41
2018-03-23T02:29:14.731Z,1024.31
2018-03-23T02:30:15.310Z,1024.36
2018-03-23T02:31:15.890Z,1024.27
2018-03-23T02:32:16.462Z,1024.28
2018-03-23T02:33:17.187Z,1024.32
2018-03-23T02:34:17.762Z,1024.27
2018-03-23T02:35:18.341Z,1024.30
2018-03-23T02:36:18.967Z,1024.20
2018-03-23T02:37:19.543Z,1024.23
2018-03-23T02:38:20.169Z,1024.23
2018-03-23T02:39:20.745Z,1024.20
2018-03-23T02:40:21.324Z,1024.13
2018-03-23T02:41:21.898Z,1024.18
2018-03-23T02:42:22.517Z,1024.10
2018-03-23T02:43:23.100Z,1024.11
2018-03-23T02:44:23.668Z,1024.05
2018-03-23T02:45:24.244Z,1024.01
2018-03-23T02:46:24.821Z,1024.02
2018-03-23T02:47:25.443Z,1023.90
2018-03-23T02:48:26.067Z,1023.90
2018-03-23T02:49:26.642Z,1023.96
2018-03-23T02:50:27.221Z,1023.89
2018-03-23T02:51:27.799Z,1023.97
2018-03-23T02:52:28.376Z,1023.98
2018-03-23T02:53:29.003Z,1023.94
2018-03-23T02:54:29.629Z,1023.99
2018-03-23T02:55:30.207Z,1023.97
2018-03-23T02:56:30.782Z,1023.95
2018-03-23T02:57:31.366Z,1023.91
2018-03-23T02:58:31.936Z,1023.93
2018-03-23T02:59:32.517Z,1023.98
2018-03-23T03:00:33.093Z,1024.04
2018-03-23T03:01:33.668Z,1023.92
2018-03-23T03:02:34.298Z,1023.91
2018-03-23T03:03:34.875Z,1023.96
2018-03-23T03:04:35.458Z,1023.89
2018-03-23T03:05:36.028Z,1023.93
2018-03-23T03:06:36.605Z,1023.88
2018-03-23T03:07:37.231Z,1023.89
2018-03-23T03:08:37.813Z,1023.86
2018-03-23T03:09:38.388Z,1023.81
2018-03-23T03:10:38.963Z,1023.81
2018-03-23T03:11:39.592Z,1023.79
2018-03-23T03:12:40.217Z,1023.80
2018-03-23T03:13:40.791Z,1023.76
2018-03-23T03:14:41.373Z,1023.76
2018-03-23T03:15:41.944Z,1023.81
2018-03-23T03:16:42.519Z,1023.74
2018-03-23T03:17:43.095Z,1023.75
2018-03-23T03:18:43.673Z,1023.66
2018-03-23T03:19:44.247Z,1023.65
2018-03-23T03:20:44.822Z,1023.65
2018-03-23T03:21:45.396Z,1023.60
2018-03-23T03:22:46.022Z,1023.66
2018-03-23T03:23:46.600Z,1023.62
2018-03-23T03:24:47.225Z,1023.60
2018-03-23T03:25:47.805Z,1023.66
2018-03-23T03:26:48.523Z,1023.63
2018-03-23T03:27:49.100Z,1023.65
2018-03-23T03:28:49.677Z,1023.59
2018-03-23T03:29:50.254Z,1023.61
2018-03-23T03:30:50.832Z,1023.63
2018-03-23T03:31:51.459Z,1023.69
2018-03-23T03:32:52.034Z,1023.63
2018-03-23T03:33:52.612Z,1023.58
2018-03-23T03:34:53.189Z,1023.64
2018-03-23T03:35:53.765Z,1023.58
2018-03-23T03:36:54.344Z,1023.51
2018-03-23T03:37:54.962Z,1023.58
2018-03-23T03:38:55.539Z,1023.60
2018-03-23T03:39:56.119Z,1023.56
2018-03-23T03:40:56.695Z,1023.53
2018-03-23T03:41:57.270Z,1023.58
2018-03-23T03:42:57.896Z,1023.48
2018-03-23T03:43:58.473Z,1023.53
2018-03-23T03:44:59.051Z,1023.47
2018-03-23T03:45:59.679Z,1023.50
2018-03-23T03:47:00.254Z,1023.41
2018-03-23T03:48:00.859Z,1023.40
2018-03-23T03:49:01.406Z,1023.43
2018-03-23T03:50:01.982Z,1023.45
2018-03-23T03:51:02.556Z,1023.38
2018-03-23T03:52:03.135Z,1023.35
2018-03-23T03:53:03.712Z,1023.29
2018-03-23T03:54:04.288Z,1023.33
2018-03-23T03:55:04.865Z,1023.33
2018-03-23T03:56:05.446Z,1023.32
2018-03-23T03:57:06.073Z,1023.31
2018-03-23T03:58:06.652Z,1023.38
2018-03-23T03:59:07.228Z,1023.36
2018-03-23T04:00:07.807Z,1023.30
2018-03-23T04:01:08.434Z,1023.19
2018-03-23T04:02:09.011Z,1023.30
2018-03-23T04:03:09.588Z,1023.21
2018-03-23T04:04:10.321Z,1023.17
2018-03-23T04:05:10.895Z,1023.25
2018-03-23T04:06:11.471Z,1023.16
2018-03-23T04:07:12.046Z,1023.24
2018-03-23T04:08:12.622Z,1023.15
2018-03-23T04:09:13.198Z,1023.11
2018-03-23T04:10:13.778Z,1023.11
2018-03-23T04:11:14.355Z,1023.06
2018-03-23T04:12:14.982Z,1023.04
2018-03-23T04:13:15.556Z,1023.00
2018-03-23T04:14:16.131Z,1022.99
2018-03-23T04:15:16.706Z,1023.03
2018-03-23T04:16:17.281Z,1023.05
2018-03-23T04:17:17.909Z,1023.08
2018-03-23T04:18:18.486Z,1023.00
2018-03-23T04:19:19.062Z,1023.01
2018-03-23T04:20:19.638Z,1023.07
2018-03-23T04:21:20.213Z,1022.94
2018-03-23T04:22:20.788Z,1022.97
2018-03-23T04:23:21.514Z,1022.92
2018-03-23T04:24:22.088Z,1022.89
2018-03-23T04:25:22.665Z,1022.89
2018-03-23T04:26:23.243Z,1022.90
2018-03-23T04:27:23.869Z,1022.84
2018-03-23T04:28:24.497Z,1022.78
2018-03-23T04:29:25.079Z,1022.67
2018-03-23T04:30:25.655Z,1022.69
2018-03-23T04:31:26.276Z,1022.66
2018-03-23T04:32:26.852Z,1022.64
2018-03-23T04:33:27.436Z,1022.64
2018-03-23T04:34:28.006Z,1022.65
2018-03-23T04:35:28.583Z,1022.65
2018-03-23T04:36:29.166Z,1022.58
2018-03-23T04:37:29.738Z,1022.58
2018-03-23T04:38:30.316Z,1022.62
2018-03-23T04:39:30.942Z,1022.65
2018-03-23T04:40:31.520Z,1022.60
2018-03-23T04:41:32.097Z,1022.62
2018-03-23T04:42:32.674Z,1022.63
2018-03-23T04:43:33.301Z,1022.55
2018-03-23T04:44:33.887Z,1022.60
2018-03-23T04:45:34.452Z,1022.57
2018-03-23T04:46:35.028Z,1022.55
2018-03-23T04:47:35.603Z,1022.52
2018-03-23T04:48:36.184Z,1022.44
2018-03-23T04:49:36.805Z,1022.50
2018-03-23T04:50:37.381Z,1022.49
2018-03-23T04:51:37.957Z,1022.53
2018-03-23T04:52:38.535Z,1022.47
2018-03-23T04:53:39.108Z,1022.46
2018-03-23T04:54:39.682Z,1022.45
2018-03-23T04:55:40.259Z,1022.48
2018-03-23T04:56:40.838Z,1022.50
2018-03-23T04:57:41.409Z,1022.49
2018-03-23T04:58:42.035Z,1022.45
2018-03-23T04:59:42.613Z,1022.51
2018-03-23T05:00:43.238Z,1022.46
2018-03-23T05:01:43.815Z,1022.50
2018-03-23T05:02:44.392Z,1022.48
2018-03-23T05:03:44.970Z,1022.48
2018-03-23T05:04:45.548Z,1022.36
2018-03-23T05:05:46.125Z,1022.41
2018-03-23T05:06:46.753Z,1022.30
2018-03-23T05:07:47.329Z,1022.23
2018-03-23T05:08:47.905Z,1022.29
2018-03-23T05:09:48.482Z,1022.25
2018-03-23T05:10:49.059Z,1022.20
2018-03-23T05:11:49.638Z,1022.18
2018-03-23T05:12:50.214Z,1022.20
2018-03-23T05:13:50.788Z,1022.14
2018-03-23T05:14:51.415Z,1022.19
2018-03-23T05:15:52.031Z,1022.20
2018-03-23T05:16:52.610Z,1022.16
2018-03-23T05:17:53.236Z,1022.14
2018-03-23T05:18:53.810Z,1022.09
2018-03-23T05:19:54.384Z,1022.08
2018-03-23T05:20:54.963Z,1022.05
2018-03-23T05:21:55.626Z,1022.09
2018-03-23T05:22:56.201Z,1022.07
2018-03-23T05:23:56.778Z,1022.06
2018-03-23T05:24:57.355Z,1022.05
2018-03-23T05:25:57.933Z,1022.05
2018-03-23T05:26:58.509Z,1021.95
2018-03-23T05:27:59.086Z,1021.97
2018-03-23T05:28:59.661Z,1021.86
2018-03-23T05:30:00.237Z,1021.93
2018-03-23T05:31:00.813Z,1021.96
2018-03-23T05:32:01.389Z,1021.88
2018-03-23T05:33:02.113Z,1021.91
2018-03-23T05:34:02.692Z,1021.93
2018-03-23T05:35:03.276Z,1021.90
2018-03-23T05:36:03.847Z,1021.87
2018-03-23T05:37:04.424Z,1021.88
2018-03-23T05:38:05.051Z,1021.86
2018-03-23T05:39:05.678Z,1021.83
2018-03-23T05:40:06.253Z,1021.79
2018-03-23T05:41:06.836Z,1021.78
2018-03-23T05:42:07.406Z,1021.76
2018-03-23T05:43:07.982Z,1021.68
2018-03-23T05:44:08.557Z,1021.69
2018-03-23T05:45:09.133Z,1021.69
2018-03-23T05:46:09.763Z,1021.64
2018-03-23T05:47:10.289Z,1021.64
2018-03-23T05:48:10.872Z,1021.58
2018-03-23T05:49:11.492Z,1021.53
2018-03-23T05:50:12.069Z,1021.56
2018-03-23T05:51:12.651Z,1021.62
2018-03-23T05:52:13.231Z,1021.53
2018-03-23T05:53:13.803Z,1021.51
2018-03-23T05:54:14.378Z,1021.44
2018-03-23T05:55:14.958Z,1021.46
2018-03-23T05:56:15.578Z,1021.39
2018-03-23T05:57:16.154Z,1021.39
2018-03-23T05:58:16.730Z,1021.29
2018-03-23T05:59:17.307Z,1021.28
2018-03-23T06:00:17.935Z,1021.31
2018-03-23T06:01:18.509Z,1021.37
2018-03-23T06:02:19.085Z,1021.33
2018-03-23T06:03:19.661Z,1021.25
2018-03-23T06:04:20.237Z,1021.27
2018-03-23T06:05:20.813Z,1021.23
2018-03-23T06:06:21.389Z,1021.25
2018-03-23T06:07:21.967Z,1021.15
2018-03-23T06:08:22.594Z,1021.26
2018-03-23T06:09:23.166Z,1021.11
2018-03-23T06:10:23.744Z,1021.13
2018-03-23T06:11:24.319Z,1021.21
2018-03-23T06:12:25.044Z,1021.15
2018-03-23T06:13:25.619Z,1021.04
2018-03-23T06:14:26.195Z,1021.06
2018-03-23T06:15:26.774Z,1021.06
2018-03-23T06:16:27.349Z,1020.99
2018-03-23T06:17:27.926Z,1020.99
2018-03-23T06:18:28.552Z,1020.96
2018-03-23T06:19:29.128Z,1020.98
2018-03-23T06:20:29.704Z,1020.90
2018-03-23T06:21:30.281Z,1020.99
2018-03-23T06:22:30.862Z,1020.91
2018-03-23T06:23:31.432Z,1020.95
2018-03-23T06:24:32.059Z,1020.91
2018-03-23T06:25:32.635Z,1020.94
2018-03-23T06:26:33.214Z,1020.95
2018-03-23T06:27:33.792Z,1020.91
2018-03-23T06:28:34.370Z,1020.86
2018-03-23T06:29:34.950Z,1020.83
2018-03-23T06:30:35.775Z,1020.69
2018-03-23T06:31:36.452Z,1020.70
2018-03-23T06:32:37.027Z,1020.77
2018-03-23T06:33:37.652Z,1020.77
2018-03-23T06:34:38.228Z,1020.79
2018-03-23T06:35:38.803Z,1020.72
2018-03-23T06:36:39.378Z,1020.78
2018-03-23T06:37:39.953Z,1020.85
2018-03-23T06:38:40.528Z,1020.81
2018-03-23T06:39:41.113Z,1020.80
2018-03-23T06:40:41.689Z,1020.82
2018-03-23T06:41:42.266Z,1020.81
2018-03-23T06:42:42.842Z,1020.85
2018-03-23T06:43:43.418Z,1020.77
2018-03-23T06:44:43.994Z,1020.79
2018-03-23T06:45:44.569Z,1020.74
2018-03-23T06:46:45.204Z,1020.65
2018-03-23T06:47:45.779Z,1020.67
2018-03-23T06:48:46.355Z,1020.68
2018-03-23T06:49:46.931Z,1020.77
2018-03-23T06:50:47.560Z,1020.71
2018-03-23T06:51:48.135Z,1020.66
2018-03-23T06:52:48.760Z,1020.60
2018-03-23T06:53:49.337Z,1020.64
2018-03-23T06:54:49.915Z,1020.72
2018-03-23T06:55:50.492Z,1020.71
2018-03-23T06:56:51.069Z,1020.66
2018-03-23T06:57:51.644Z,1020.68
2018-03-23T06:58:52.224Z,1020.61
2018-03-23T06:59:52.793Z,1020.60
2018-03-23T07:00:53.368Z,1020.66
2018-03-23T07:01:53.961Z,1020.54
2018-03-23T07:02:54.569Z,1020.66
2018-03-23T07:03:55.146Z,1020.60
2018-03-23T07:04:55.722Z,1020.53
2018-03-23T07:05:56.300Z,1020.51
2018-03-23T07:06:56.874Z,1020.54
2018-03-23T07:07:57.504Z,1020.54
2018-03-23T07:08:58.078Z,1020.43
2018-03-23T07:09:58.805Z,1020.53
2018-03-23T07:10:59.435Z,1020.50
2018-03-23T07:12:00.005Z,1020.49
2018-03-23T07:13:00.579Z,1020.45
2018-03-23T07:14:01.153Z,1020.32
2018-03-23T07:15:01.731Z,1020.23
2018-03-23T07:16:02.307Z,1020.32
2018-03-23T07:17:02.929Z,1020.31
2018-03-23T07:18:03.547Z,1020.40
2018-03-23T07:19:04.128Z,1020.36
2018-03-23T07:20:04.741Z,1020.37
2018-03-23T07:21:05.365Z,1020.38
2018-03-23T07:22:05.941Z,1020.34
2018-03-23T07:23:06.517Z,1020.26
2018-03-23T07:24:07.093Z,1020.25
2018-03-23T07:25:07.679Z,1020.37
2018-03-23T07:26:08.251Z,1020.28
2018-03-23T07:27:09.028Z,1020.27
2018-03-23T07:28:09.645Z,1020.24
2018-03-23T07:29:10.371Z,1020.27
2018-03-23T07:30:10.999Z,1020.30
2018-03-23T07:31:11.575Z,1020.29
2018-03-23T07:32:12.151Z,1020.30
2018-03-23T07:33:12.730Z,1020.26
2018-03-23T07:34:13.307Z,1020.22
2018-03-23T07:35:13.885Z,1020.25
2018-03-23T07:36:14.465Z,1020.27
2018-03-23T07:37:15.038Z,1020.34
2018-03-23T07:38:15.613Z,1020.26
2018-03-23T07:39:16.187Z,1020.16
2018-03-23T07:40:16.762Z,1020.19
2018-03-23T07:41:17.339Z,1020.24
2018-03-23T07:42:17.965Z,1020.15
2018-03-23T07:43:18.541Z,1020.14
2018-03-23T07:44:19.167Z,1020.07
2018-03-23T07:45:19.743Z,1020.06
2018-03-23T07:46:20.321Z,1020.12
2018-03-23T07:47:21.046Z,1020.09
2018-03-23T07:48:21.619Z,1020.00
2018-03-23T07:49:22.246Z,1019.98
2018-03-23T07:50:22.821Z,1020.00
2018-03-23T07:51:23.396Z,1020.02
2018-03-23T07:52:23.973Z,1020.03
2018-03-23T07:53:24.549Z,1019.92
2018-03-23T07:54:25.142Z,1019.91
2018-03-23T07:55:25.703Z,1019.86
2018-03-23T07:56:26.278Z,1019.85
2018-03-23T07:57:26.855Z,1019.85
2018-03-23T07:58:27.431Z,1019.84
2018-03-23T07:59:28.058Z,1019.84
2018-03-23T08:00:28.684Z,1019.90
2018-03-23T08:01:29.259Z,1019.86
2018-03-23T08:02:29.835Z,1019.96
2018-03-23T08:03:30.413Z,1019.89
2018-03-23T08:04:31.038Z,1019.88
2018-03-23T08:05:31.613Z,1019.92
2018-03-23T08:06:32.189Z,1019.83
2018-03-23T08:07:32.764Z,1019.85
2018-03-23T08:08:33.344Z,1019.88
2018-03-23T08:09:33.968Z,1019.83
2018-03-23T08:10:34.543Z,1019.79
2018-03-23T08:11:35.122Z,1019.83
2018-03-23T08:12:35.698Z,1019.93
2018-03-23T08:13:36.277Z,1019.88
2018-03-23T08:14:36.852Z,1019.89
2018-03-23T08:15:37.427Z,1019.89
2018-03-23T08:16:38.057Z,1019.87
2018-03-23T08:17:38.627Z,1019.88
2018-03-23T08:18:39.257Z,1019.87
2018-03-23T08:19:39.832Z,1019.85
2018-03-23T08:20:40.407Z,1019.82
2018-03-23T08:21:40.977Z,1019.96
2018-03-23T08:22:41.603Z,1019.91
2018-03-23T08:23:42.180Z,1019.98
2018-03-23T08:24:42.757Z,1019.94
2018-03-23T08:25:43.333Z,1019.88
2018-03-23T08:26:43.910Z,1019.91
2018-03-23T08:27:44.485Z,1019.91
2018-03-23T08:28:45.060Z,1019.87
2018-03-23T08:29:45.634Z,1019.96
2018-03-23T08:30:46.208Z,1019.99
2018-03-23T08:31:46.788Z,1019.98
2018-03-23T08:32:47.358Z,1020.04
2018-03-23T08:33:47.933Z,1020.03
2018-03-23T08:34:48.562Z,1020.05
2018-03-23T08:35:49.087Z,1020.03
2018-03-23T08:36:49.665Z,1020.15
2018-03-23T08:37:50.291Z,1020.09
2018-03-23T08:38:50.916Z,1019.98
2018-03-23T08:39:51.495Z,1019.98
2018-03-23T08:40:52.072Z,1019.97
2018-03-23T08:41:52.647Z,1020.06
2018-03-23T08:42:53.223Z,1019.99
2018-03-23T08:43:53.846Z,1020.08
2018-03-23T08:44:54.424Z,1020.03
2018-03-23T08:45:54.998Z,1020.03
2018-03-23T08:46:55.576Z,1020.03
2018-03-23T08:47:56.149Z,1020.01
2018-03-23T08:48:56.727Z,1019.98
2018-03-23T08:49:57.300Z,1020.03
2018-03-23T08:50:57.875Z,1020.07
2018-03-23T08:51:58.450Z,1020.11
2018-03-23T08:52:59.077Z,1020.19
2018-03-23T08:53:59.654Z,1020.17
2018-03-23T08:55:00.229Z,1020.14
2018-03-23T08:56:00.805Z,1020.21
2018-03-23T08:57:01.429Z,1020.17
2018-03-23T08:58:02.002Z,1020.15
2018-03-23T08:59:02.578Z,1020.09
2018-03-23T09:00:03.153Z,1020.13
2018-03-23T09:01:03.734Z,1020.15
2018-03-23T09:02:04.379Z,1020.09
2018-03-23T09:03:04.890Z,1020.02
2018-03-23T09:04:05.464Z,1020.06
2018-03-23T09:05:06.043Z,1020.02
2018-03-23T09:06:06.616Z,1019.99
2018-03-23T09:07:07.193Z,1020.00
2018-03-23T09:08:07.918Z,1019.90
2018-03-23T09:09:08.495Z,1019.91
2018-03-23T09:10:09.072Z,1019.84
2018-03-23T09:11:09.651Z,1019.83
2018-03-23T09:12:10.226Z,1019.84
2018-03-23T09:13:10.855Z,1019.81
2018-03-23T09:14:11.483Z,1019.90
2018-03-23T09:15:12.061Z,1019.94
2018-03-23T09:16:12.641Z,1019.82
2018-03-23T09:17:13.222Z,1019.79
2018-03-23T09:18:13.803Z,1019.90
2018-03-23T09:19:14.382Z,1019.86
2018-03-23T09:20:14.964Z,1019.82
2018-03-23T09:21:15.638Z,1019.86
2018-03-23T09:22:16.214Z,1019.84
2018-03-23T09:23:16.803Z,1019.88
2018-03-23T09:24:17.421Z,1019.92
2018-03-23T09:25:18.000Z,1019.95
2018-03-23T09:26:18.587Z,1019.93
2018-03-23T09:27:19.170Z,1019.88
2018-03-23T09:28:19.746Z,1019.98
2018-03-23T09:29:20.327Z,1019.92
2018-03-23T09:30:20.908Z,1019.93
2018-03-23T09:31:21.537Z,1019.87
2018-03-23T09:32:22.121Z,1019.92
2018-03-23T09:33:22.698Z,1019.98
2018-03-23T09:34:23.276Z,1020.01
2018-03-23T09:35:23.908Z,1019.99
2018-03-23T09:36:24.490Z,1020.07
2018-03-23T09:37:25.121Z,1020.04
2018-03-23T09:38:25.700Z,1020.01
2018-03-23T09:39:26.280Z,1020.06
2018-03-23T09:40:26.859Z,1019.99
2018-03-23T09:41:27.439Z,1020.08
2018-03-23T09:42:28.019Z,1020.09
2018-03-23T09:43:28.600Z,1020.04
2018-03-23T09:44:29.183Z,1020.05
2018-03-23T09:45:29.766Z,1020.04
2018-03-23T09:46:30.345Z,1020.07
2018-03-23T09:47:30.927Z,1020.04
2018-03-23T09:48:31.507Z,1020.01
2018-03-23T09:49:32.088Z,1020.08
2018-03-23T09:50:32.718Z,1020.04
2018-03-23T09:51:33.297Z,1020.04
2018-03-23T09:52:34.026Z,1020.01
2018-03-23T09:53:34.608Z,1020.04
2018-03-23T09:54:35.186Z,1020.03
2018-03-23T09:55:35.764Z,1020.05
2018-03-23T09:56:36.343Z,1020.08
2018-03-23T09:57:36.925Z,1020.11
2018-03-23T09:58:37.506Z,1020.11
2018-03-23T09:59:38.087Z,1020.03
2018-03-23T10:00:38.662Z,1020.03
2018-03-23T10:01:39.243Z,1019.98
2018-03-23T10:02:39.847Z,1020.03
2018-03-23T10:03:40.402Z,1019.97
2018-03-23T10:04:40.982Z,1019.99
2018-03-23T10:05:41.563Z,1019.97
2018-03-23T10:06:42.194Z,1019.97
2018-03-23T10:07:42.774Z,1019.95
2018-03-23T10:08:43.359Z,1019.96
2018-03-23T10:09:43.939Z,1019.94
2018-03-23T10:10:44.570Z,1019.79
2018-03-23T10:11:45.201Z,1019.91
2018-03-23T10:12:45.785Z,1019.96
2018-03-23T10:13:46.366Z,1019.91
2018-03-23T10:14:46.948Z,1019.95
2018-03-23T10:15:47.530Z,1019.94
2018-03-23T10:16:48.110Z,1019.94
2018-03-23T10:17:48.691Z,1020.02
2018-03-23T10:18:49.275Z,1019.97
2018-03-23T10:19:49.856Z,1019.98
2018-03-23T10:20:50.515Z,1019.99
2018-03-23T10:21:51.018Z,1019.99
2018-03-23T10:22:51.597Z,1019.99
2018-03-23T10:23:52.177Z,1019.90
2018-03-23T10:24:52.911Z,1019.88
2018-03-23T10:25:53.493Z,1019.93
2018-03-23T10:26:54.075Z,1019.89
2018-03-23T10:27:54.704Z,1019.88
2018-03-23T10:28:55.335Z,1019.96
2018-03-23T10:29:55.863Z,1019.94
2018-03-23T10:30:56.538Z,1019.97
2018-03-23T10:31:57.115Z,1019.87
2018-03-23T10:32:57.703Z,1019.85
2018-03-23T10:33:58.280Z,1019.84
2018-03-23T10:34:58.860Z,1019.93
2018-03-23T10:35:59.443Z,1019.87
2018-03-23T10:37:00.027Z,1019.89
2018-03-23T10:38:00.649Z,1019.89
2018-03-23T10:39:01.231Z,1019.80
2018-03-23T10:40:01.862Z,1019.74
2018-03-23T10:41:02.445Z,1019.78
2018-03-23T10:42:03.028Z,1019.77
2018-03-23T10:43:03.608Z,1019.83
2018-03-23T10:44:04.190Z,1019.79
2018-03-23T10:45:04.774Z,1019.73
2018-03-23T10:46:05.355Z,1019.73
2018-03-23T10:47:05.936Z,1019.77
2018-03-23T10:48:06.569Z,1019.74
2018-03-23T10:49:07.151Z,1019.71
2018-03-23T10:50:07.732Z,1019.77
2018-03-23T10:51:08.311Z,1019.77
2018-03-23T10:52:08.896Z,1019.73
2018-03-23T10:53:09.516Z,1019.69
2018-03-23T10:54:10.098Z,1019.80
2018-03-23T10:55:10.835Z,1019.67
2018-03-23T10:56:11.509Z,1019.73
2018-03-23T10:57:12.088Z,1019.78
2018-03-23T10:58:12.666Z,1019.73
2018-03-23T10:59:13.246Z,1019.73
2018-03-23T11:00:13.878Z,1019.68
2018-03-23T11:01:14.460Z,1019.67
2018-03-23T11:02:15.041Z,1019.62
2018-03-23T11:03:15.671Z,1019.55
2018-03-23T11:04:16.252Z,1019.41
2018-03-23T11:05:16.833Z,1019.27
2018-03-23T11:06:17.423Z,1019.45
2018-03-23T11:07:17.996Z,1019.55
2018-03-23T11:08:18.578Z,1019.52
2018-03-23T11:09:19.160Z,1019.54
2018-03-23T11:10:19.740Z,1019.38
2018-03-23T11:11:20.320Z,1019.39
2018-03-23T11:12:20.900Z,1019.45
2018-03-23T11:13:21.531Z,1019.56
2018-03-23T11:14:22.110Z,1019.57
2018-03-23T11:15:22.690Z,1019.53
2018-03-23T11:16:23.272Z,1019.49
2018-03-23T11:17:24.004Z,1019.55
2018-03-23T11:18:24.633Z,1019.54
2018-03-23T11:19:25.267Z,1019.46
2018-03-23T11:20:25.847Z,1019.40
2018-03-23T11:21:26.430Z,1019.45
2018-03-23T11:22:27.011Z,1019.51
2018-03-23T11:23:27.594Z,1019.55
2018-03-23T11:24:28.266Z,1019.47
2018-03-23T11:25:28.797Z,1019.50
2018-03-23T11:26:29.379Z,1019.46
2018-03-23T11:27:29.957Z,1019.41
2018-03-23T11:28:30.541Z,1019.33
2018-03-23T11:29:31.125Z,1019.32
2018-03-23T11:30:31.709Z,1019.30
2018-03-23T11:31:32.291Z,1019.44
2018-03-23T11:32:33.022Z,1019.37
2018-03-23T11:33:33.656Z,1019.43
2018-03-23T11:34:34.241Z,1019.42
2018-03-23T11:35:34.821Z,1019.42
2018-03-23T11:36:35.402Z,1019.41
2018-03-23T11:37:36.032Z,1019.35
2018-03-23T11:38:36.613Z,1019.36
2018-03-23T11:39:37.196Z,1019.39
2018-03-23T11:40:37.775Z,1019.35
2018-03-23T11:41:38.358Z,1019.47
2018-03-23T11:42:38.944Z,1019.52
2018-03-23T11:43:39.526Z,1019.52
2018-03-23T11:44:40.107Z,1019.46
2018-03-23T11:45:40.688Z,1019.46
2018-03-23T11:46:41.275Z,1019.45
2018-03-23T11:47:41.894Z,1019.49
2018-03-23T11:48:42.530Z,1019.57
2018-03-23T11:49:43.106Z,1019.42
2018-03-23T11:50:43.720Z,1019.35
2018-03-23T11:51:44.318Z,1019.23
2018-03-23T11:52:44.900Z,1019.19
2018-03-23T11:53:45.480Z,1019.20
2018-03-23T11:54:46.060Z,1019.15
2018-03-23T11:55:46.648Z,1019.16
2018-03-23T11:56:47.226Z,1019.11
2018-03-23T11:57:47.811Z,1019.11
2018-03-23T11:58:48.442Z,1019.03
2018-03-23T11:59:49.026Z,1019.10
2018-03-23T12:00:49.607Z,1019.15
2018-03-23T12:01:50.189Z,1019.12
2018-03-23T12:02:50.774Z,1019.09
2018-03-23T12:03:51.356Z,1019.04
2018-03-23T12:04:51.987Z,1019.04
2018-03-23T12:05:52.621Z,1019.02
2018-03-23T12:06:53.206Z,1019.02
2018-03-23T12:07:53.788Z,1019.07
2018-03-23T12:08:54.421Z,1018.92
2018-03-23T12:09:55.004Z,1018.85
2018-03-23T12:10:55.589Z,1018.82
2018-03-23T12:11:56.172Z,1018.92
2018-03-23T12:12:56.754Z,1018.88